sensor_id;sensor_type;location;lat;lon;timestamp;temperature;humidity
22114;DHT22;11223;49.968;9.062;2023-02-04T00:01:20;6.40;99.90
22114;DHT22;11223;49.968;9.062;2023-02-04T00:03:45;6.30;99.90
22114;DHT22;11223;49.968;9.062;2023-02-04T00:06:11;6.30;99.90
22114;DHT22;11223;49.968;9.062;2023-02-04T00:08:36;6.30;99.90
22114;DHT22;11223;49.968;9.062;2023-02-04T00:11:03;6.30;99.90
22114;DHT22;11223;49.968;9.062;2023-02-04T00:13:28;6.30;99.90
22114;DHT22;11223;49.968;9.062;2023-02-04T00:15:54;6.30;99.90
22114;DHT22;11223;49.968;9.062;2023-02-04T00:18:20;6.30;99.90
22114;DHT22;11223;49.968;9.062;2023-02-04T00:20:45;6.30;99.90
22114;DHT22;11223;49.968;9.062;2023-02-04T00:23:11;6.20;99.90
22114;DHT22;11223;49.968;9.062;2023-02-04T00:25:36;6.20;99.90
22114;DHT22;11223;49.968;9.062;2023-02-04T00:28:02;6.10;99.90
22114;DHT22;11223;49.968;9.062;2023-02-04T00:30:28;6.10;99.90
22114;DHT22;11223;49.968;9.062;2023-02-04T00:32:54;6.10;99.90
22114;DHT22;11223;49.968;9.062;2023-02-04T00:35:22;6.20;99.90
22114;DHT22;11223;49.968;9.062;2023-02-04T00:37:47;6.20;99.90
22114;DHT22;11223;49.968;9.062;2023-02-04T00:40:13;6.20;99.90
22114;DHT22;11223;49.968;9.062;2023-02-04T00:42:39;6.30;99.90
22114;DHT22;11223;49.968;9.062;2023-02-04T00:45:05;6.40;99.90
22114;DHT22;11223;49.968;9.062;2023-02-04T00:47:31;6.40;99.90
22114;DHT22;11223;49.968;9.062;2023-02-04T00:49:56;6.50;99.90
22114;DHT22;11223;49.968;9.062;2023-02-04T00:52:22;6.40;99.90
22114;DHT22;11223;49.968;9.062;2023-02-04T00:54:48;6.40;99.90
22114;DHT22;11223;49.968;9.062;2023-02-04T00:57:14;6.30;99.90
22114;DHT22;11223;49.968;9.062;2023-02-04T00:59:39;6.30;99.90
22114;DHT22;11223;49.968;9.062;2023-02-04T01:02:05;6.30;99.90
22114;DHT22;11223;49.968;9.062;2023-02-04T01:04:31;6.20;99.90
22114;DHT22;11223;49.968;9.062;2023-02-04T01:06:57;6.20;99.90
22114;DHT22;11223;49.968;9.062;2023-02-04T01:09:23;6.20;99.90
22114;DHT22;11223;49.968;9.062;2023-02-04T01:11:49;6.20;99.90
22114;DHT22;11223;49.968;9.062;2023-02-04T01:14:14;6.10;99.90
22114;DHT22;11223;49.968;9.062;2023-02-04T01:16:40;6.00;99.90
22114;DHT22;11223;49.968;9.062;2023-02-04T01:19:06;6.00;99.90
22114;DHT22;11223;49.968;9.062;2023-02-04T01:21:31;6.00;99.90
22114;DHT22;11223;49.968;9.062;2023-02-04T01:23:57;6.00;99.90
22114;DHT22;11223;49.968;9.062;2023-02-04T01:26:23;5.90;99.90
22114;DHT22;11223;49.968;9.062;2023-02-04T01:28:48;6.00;99.90
22114;DHT22;11223;49.968;9.062;2023-02-04T01:31:14;6.00;99.90
22114;DHT22;11223;49.968;9.062;2023-02-04T01:33:40;6.00;99.90
22114;DHT22;11223;49.968;9.062;2023-02-04T01:36:06;6.10;99.90
22114;DHT22;11223;49.968;9.062;2023-02-04T01:38:32;6.00;99.90
22114;DHT22;11223;49.968;9.062;2023-02-04T01:40:58;6.00;99.90
22114;DHT22;11223;49.968;9.062;2023-02-04T01:43:25;6.00;99.90
22114;DHT22;11223;49.968;9.062;2023-02-04T01:45:51;6.00;99.90
22114;DHT22;11223;49.968;9.062;2023-02-04T01:48:18;5.90;99.90
22114;DHT22;11223;49.968;9.062;2023-02-04T01:51:04;5.90;99.90
22114;DHT22;11223;49.968;9.062;2023-02-04T01:53:30;5.80;99.90
22114;DHT22;11223;49.968;9.062;2023-02-04T01:55:57;5.80;99.90
22114;DHT22;11223;49.968;9.062;2023-02-04T01:58:22;5.80;99.90
22114;DHT22;11223;49.968;9.062;2023-02-04T02:00:49;5.70;99.90
22114;DHT22;11223;49.968;9.062;2023-02-04T02:03:15;5.70;99.90
22114;DHT22;11223;49.968;9.062;2023-02-04T02:05:44;5.60;99.90
22114;DHT22;11223;49.968;9.062;2023-02-04T02:08:11;5.60;99.90
22114;DHT22;11223;49.968;9.062;2023-02-04T02:10:39;5.50;99.90
22114;DHT22;11223;49.968;9.062;2023-02-04T02:13:06;5.40;99.90
22114;DHT22;11223;49.968;9.062;2023-02-04T02:15:33;5.40;99.90
22114;DHT22;11223;49.968;9.062;2023-02-04T02:17:59;5.40;99.90
22114;DHT22;11223;49.968;9.062;2023-02-04T02:20:25;5.40;99.90
22114;DHT22;11223;49.968;9.062;2023-02-04T02:23:14;5.40;99.90
22114;DHT22;11223;49.968;9.062;2023-02-04T02:25:40;5.30;99.90
22114;DHT22;11223;49.968;9.062;2023-02-04T02:28:12;5.20;99.90
22114;DHT22;11223;49.968;9.062;2023-02-04T02:30:38;5.20;99.90
22114;DHT22;11223;49.968;9.062;2023-02-04T02:33:04;5.20;99.90
22114;DHT22;11223;49.968;9.062;2023-02-04T02:35:31;5.20;99.90
22114;DHT22;11223;49.968;9.062;2023-02-04T02:37:57;5.10;99.90
22114;DHT22;11223;49.968;9.062;2023-02-04T02:40:23;5.10;99.90
22114;DHT22;11223;49.968;9.062;2023-02-04T02:42:50;5.10;99.90
22114;DHT22;11223;49.968;9.062;2023-02-04T02:45:29;5.10;99.90
22114;DHT22;11223;49.968;9.062;2023-02-04T02:47:57;5.00;99.90
22114;DHT22;11223;49.968;9.062;2023-02-04T02:50:25;5.00;99.90
22114;DHT22;11223;49.968;9.062;2023-02-04T02:52:52;5.00;99.90
22114;DHT22;11223;49.968;9.062;2023-02-04T02:55:19;5.00;99.90
22114;DHT22;11223;49.968;9.062;2023-02-04T02:57:47;5.00;99.90
22114;DHT22;11223;49.968;9.062;2023-02-04T03:02:44;4.90;99.90
22114;DHT22;11223;49.968;9.062;2023-02-04T03:05:10;4.80;99.90
22114;DHT22;11223;49.968;9.062;2023-02-04T03:07:36;4.70;99.90
22114;DHT22;11223;49.968;9.062;2023-02-04T03:10:03;4.60;99.90
22114;DHT22;11223;49.968;9.062;2023-02-04T03:12:29;4.60;99.90
22114;DHT22;11223;49.968;9.062;2023-02-04T03:14:54;4.60;99.90
22114;DHT22;11223;49.968;9.062;2023-02-04T03:17:20;4.50;99.90
22114;DHT22;11223;49.968;9.062;2023-02-04T03:19:47;4.50;99.90
22114;DHT22;11223;49.968;9.062;2023-02-04T03:22:13;4.50;99.90
22114;DHT22;11223;49.968;9.062;2023-02-04T03:24:39;4.60;99.90
22114;DHT22;11223;49.968;9.062;2023-02-04T03:27:06;4.60;99.90
22114;DHT22;11223;49.968;9.062;2023-02-04T03:29:31;4.50;99.90
22114;DHT22;11223;49.968;9.062;2023-02-04T03:31:58;4.50;99.90
22114;DHT22;11223;49.968;9.062;2023-02-04T03:34:24;4.50;99.90
22114;DHT22;11223;49.968;9.062;2023-02-04T03:36:50;4.50;99.90
22114;DHT22;11223;49.968;9.062;2023-02-04T03:39:15;4.50;99.90
22114;DHT22;11223;49.968;9.062;2023-02-04T03:41:41;4.40;99.90
22114;DHT22;11223;49.968;9.062;2023-02-04T03:44:07;4.40;99.90
22114;DHT22;11223;49.968;9.062;2023-02-04T03:46:32;4.40;99.90
22114;DHT22;11223;49.968;9.062;2023-02-04T03:48:58;4.40;99.90
22114;DHT22;11223;49.968;9.062;2023-02-04T03:51:24;4.40;99.90
22114;DHT22;11223;49.968;9.062;2023-02-04T03:53:49;4.30;99.90
22114;DHT22;11223;49.968;9.062;2023-02-04T03:56:15;4.30;99.90
22114;DHT22;11223;49.968;9.062;2023-02-04T03:58:41;4.30;99.90
22114;DHT22;11223;49.968;9.062;2023-02-04T04:01:06;4.30;99.90
22114;DHT22;11223;49.968;9.062;2023-02-04T04:03:32;4.30;99.90
22114;DHT22;11223;49.968;9.062;2023-02-04T04:05:57;4.20;99.90
22114;DHT22;11223;49.968;9.062;2023-02-04T04:08:23;4.30;99.90
22114;DHT22;11223;49.968;9.062;2023-02-04T04:10:49;4.30;99.90
22114;DHT22;11223;49.968;9.062;2023-02-04T04:13:15;4.20;99.90
22114;DHT22;11223;49.968;9.062;2023-02-04T04:15:41;4.20;99.90
22114;DHT22;11223;49.968;9.062;2023-02-04T04:18:06;4.20;99.90
22114;DHT22;11223;49.968;9.062;2023-02-04T04:20:32;4.10;99.90
22114;DHT22;11223;49.968;9.062;2023-02-04T04:22:57;4.00;99.90
22114;DHT22;11223;49.968;9.062;2023-02-04T04:25:23;4.10;99.90
22114;DHT22;11223;49.968;9.062;2023-02-04T04:27:49;4.10;99.90
22114;DHT22;11223;49.968;9.062;2023-02-04T04:30:15;4.10;99.90
22114;DHT22;11223;49.968;9.062;2023-02-04T04:32:40;4.10;99.90
22114;DHT22;11223;49.968;9.062;2023-02-04T04:35:06;4.20;99.90
22114;DHT22;11223;49.968;9.062;2023-02-04T04:37:32;4.20;99.90
22114;DHT22;11223;49.968;9.062;2023-02-04T04:39:59;4.30;99.90
22114;DHT22;11223;49.968;9.062;2023-02-04T04:42:26;4.30;99.90
22114;DHT22;11223;49.968;9.062;2023-02-04T04:44:51;4.30;99.90
22114;DHT22;11223;49.968;9.062;2023-02-04T04:47:17;4.20;99.90
22114;DHT22;11223;49.968;9.062;2023-02-04T04:49:42;4.20;99.90
22114;DHT22;11223;49.968;9.062;2023-02-04T04:52:08;4.20;99.90
22114;DHT22;11223;49.968;9.062;2023-02-04T04:54:35;4.20;99.90
22114;DHT22;11223;49.968;9.062;2023-02-04T04:57:00;4.20;99.90
22114;DHT22;11223;49.968;9.062;2023-02-04T04:59:26;4.10;99.90
22114;DHT22;11223;49.968;9.062;2023-02-04T05:01:52;4.10;99.90
22114;DHT22;11223;49.968;9.062;2023-02-04T05:04:17;4.10;99.90
22114;DHT22;11223;49.968;9.062;2023-02-04T05:06:43;4.10;99.90
22114;DHT22;11223;49.968;9.062;2023-02-04T05:09:09;4.10;99.90
22114;DHT22;11223;49.968;9.062;2023-02-04T05:11:35;4.10;99.90
22114;DHT22;11223;49.968;9.062;2023-02-04T05:14:00;4.10;99.90
22114;DHT22;11223;49.968;9.062;2023-02-04T05:16:26;4.10;99.90
22114;DHT22;11223;49.968;9.062;2023-02-04T05:18:51;4.00;99.90
22114;DHT22;11223;49.968;9.062;2023-02-04T05:21:17;4.00;99.90
22114;DHT22;11223;49.968;9.062;2023-02-04T05:23:43;4.00;99.90
22114;DHT22;11223;49.968;9.062;2023-02-04T05:26:08;4.00;99.90
22114;DHT22;11223;49.968;9.062;2023-02-04T05:28:34;3.90;99.90
22114;DHT22;11223;49.968;9.062;2023-02-04T05:31:00;3.90;99.90
22114;DHT22;11223;49.968;9.062;2023-02-04T05:33:25;4.00;99.90
22114;DHT22;11223;49.968;9.062;2023-02-04T05:35:51;3.90;99.90
22114;DHT22;11223;49.968;9.062;2023-02-04T05:38:17;4.00;99.90
22114;DHT22;11223;49.968;9.062;2023-02-04T05:40:42;4.00;99.90
22114;DHT22;11223;49.968;9.062;2023-02-04T05:43:08;4.00;99.90
22114;DHT22;11223;49.968;9.062;2023-02-04T05:45:33;4.00;99.90
22114;DHT22;11223;49.968;9.062;2023-02-04T05:47:59;4.00;99.90
22114;DHT22;11223;49.968;9.062;2023-02-04T05:50:25;4.00;99.90
22114;DHT22;11223;49.968;9.062;2023-02-04T05:52:50;4.00;99.90
22114;DHT22;11223;49.968;9.062;2023-02-04T05:55:16;4.00;99.90
22114;DHT22;11223;49.968;9.062;2023-02-04T05:57:42;4.00;99.90
22114;DHT22;11223;49.968;9.062;2023-02-04T06:00:08;4.00;99.90
22114;DHT22;11223;49.968;9.062;2023-02-04T06:02:34;4.00;99.90
22114;DHT22;11223;49.968;9.062;2023-02-04T06:04:59;3.90;99.90
22114;DHT22;11223;49.968;9.062;2023-02-04T06:07:25;3.90;99.90
22114;DHT22;11223;49.968;9.062;2023-02-04T06:09:51;3.90;99.90
22114;DHT22;11223;49.968;9.062;2023-02-04T06:12:16;3.90;99.90
22114;DHT22;11223;49.968;9.062;2023-02-04T06:14:42;3.90;99.90
22114;DHT22;11223;49.968;9.062;2023-02-04T06:17:07;3.90;99.90
22114;DHT22;11223;49.968;9.062;2023-02-04T06:19:33;3.90;99.90
22114;DHT22;11223;49.968;9.062;2023-02-04T06:21:58;3.80;99.90
22114;DHT22;11223;49.968;9.062;2023-02-04T06:24:24;3.80;99.90
22114;DHT22;11223;49.968;9.062;2023-02-04T06:26:50;3.80;99.90
22114;DHT22;11223;49.968;9.062;2023-02-04T06:29:15;3.80;99.90
22114;DHT22;11223;49.968;9.062;2023-02-04T06:31:41;3.80;99.90
22114;DHT22;11223;49.968;9.062;2023-02-04T06:34:07;3.80;99.90
22114;DHT22;11223;49.968;9.062;2023-02-04T06:36:33;3.80;99.90
22114;DHT22;11223;49.968;9.062;2023-02-04T06:38:58;3.90;99.90
22114;DHT22;11223;49.968;9.062;2023-02-04T06:41:24;3.90;99.90
22114;DHT22;11223;49.968;9.062;2023-02-04T06:43:50;3.90;99.90
22114;DHT22;11223;49.968;9.062;2023-02-04T06:46:15;3.90;99.90
22114;DHT22;11223;49.968;9.062;2023-02-04T06:48:41;3.90;99.90
22114;DHT22;11223;49.968;9.062;2023-02-04T06:51:06;3.90;99.90
22114;DHT22;11223;49.968;9.062;2023-02-04T06:53:32;3.90;99.90
22114;DHT22;11223;49.968;9.062;2023-02-04T06:55:58;3.90;99.90
22114;DHT22;11223;49.968;9.062;2023-02-04T06:58:23;3.80;99.90
22114;DHT22;11223;49.968;9.062;2023-02-04T07:00:49;3.80;99.90
22114;DHT22;11223;49.968;9.062;2023-02-04T07:03:15;3.80;99.90
22114;DHT22;11223;49.968;9.062;2023-02-04T07:05:40;3.80;99.90
22114;DHT22;11223;49.968;9.062;2023-02-04T07:08:06;3.70;99.90
22114;DHT22;11223;49.968;9.062;2023-02-04T07:10:31;3.70;99.90
22114;DHT22;11223;49.968;9.062;2023-02-04T07:12:57;3.70;99.90
22114;DHT22;11223;49.968;9.062;2023-02-04T07:15:23;3.70;99.90
22114;DHT22;11223;49.968;9.062;2023-02-04T07:17:49;3.60;99.90
22114;DHT22;11223;49.968;9.062;2023-02-04T07:20:15;3.60;99.90
22114;DHT22;11223;49.968;9.062;2023-02-04T07:22:40;3.60;99.90
22114;DHT22;11223;49.968;9.062;2023-02-04T07:25:07;3.60;99.90
22114;DHT22;11223;49.968;9.062;2023-02-04T07:27:32;3.60;99.90
22114;DHT22;11223;49.968;9.062;2023-02-04T07:29:58;3.60;99.90
22114;DHT22;11223;49.968;9.062;2023-02-04T07:32:24;3.50;99.90
22114;DHT22;11223;49.968;9.062;2023-02-04T07:34:52;3.50;99.90
22114;DHT22;11223;49.968;9.062;2023-02-04T07:37:17;3.50;99.90
22114;DHT22;11223;49.968;9.062;2023-02-04T07:39:44;3.50;99.90
22114;DHT22;11223;49.968;9.062;2023-02-04T07:42:10;3.60;99.90
22114;DHT22;11223;49.968;9.062;2023-02-04T07:44:36;3.60;99.90
22114;DHT22;11223;49.968;9.062;2023-02-04T07:47:02;3.60;99.90
22114;DHT22;11223;49.968;9.062;2023-02-04T07:49:27;3.60;99.90
22114;DHT22;11223;49.968;9.062;2023-02-04T07:51:53;3.50;99.90
22114;DHT22;11223;49.968;9.062;2023-02-04T07:54:19;3.50;99.90
22114;DHT22;11223;49.968;9.062;2023-02-04T07:56:44;3.40;99.90
22114;DHT22;11223;49.968;9.062;2023-02-04T07:59:10;3.50;99.90
22114;DHT22;11223;49.968;9.062;2023-02-04T08:01:36;3.50;99.90
22114;DHT22;11223;49.968;9.062;2023-02-04T08:04:01;3.50;99.90
22114;DHT22;11223;49.968;9.062;2023-02-04T08:06:27;3.60;99.90
22114;DHT22;11223;49.968;9.062;2023-02-04T08:08:52;3.60;99.90
22114;DHT22;11223;49.968;9.062;2023-02-04T08:11:18;3.70;99.90
22114;DHT22;11223;49.968;9.062;2023-02-04T08:13:43;3.80;99.90
22114;DHT22;11223;49.968;9.062;2023-02-04T08:16:09;3.90;99.90
22114;DHT22;11223;49.968;9.062;2023-02-04T08:18:35;3.90;99.90
22114;DHT22;11223;49.968;9.062;2023-02-04T08:21:00;4.00;99.90
22114;DHT22;11223;49.968;9.062;2023-02-04T08:23:27;4.10;99.90
22114;DHT22;11223;49.968;9.062;2023-02-04T08:25:53;4.10;99.90
22114;DHT22;11223;49.968;9.062;2023-02-04T08:28:18;4.20;99.90
22114;DHT22;11223;49.968;9.062;2023-02-04T08:30:44;4.30;99.90
22114;DHT22;11223;49.968;9.062;2023-02-04T08:33:09;4.40;99.90
22114;DHT22;11223;49.968;9.062;2023-02-04T08:35:35;4.50;99.90
22114;DHT22;11223;49.968;9.062;2023-02-04T08:38:01;4.70;99.90
22114;DHT22;11223;49.968;9.062;2023-02-04T08:40:26;4.80;99.90
22114;DHT22;11223;49.968;9.062;2023-02-04T08:42:52;4.90;99.90
22114;DHT22;11223;49.968;9.062;2023-02-04T08:45:17;5.00;99.90
22114;DHT22;11223;49.968;9.062;2023-02-04T08:47:43;5.10;99.90
22114;DHT22;11223;49.968;9.062;2023-02-04T08:50:09;5.10;99.90
22114;DHT22;11223;49.968;9.062;2023-02-04T08:52:35;5.20;99.90
22114;DHT22;11223;49.968;9.062;2023-02-04T08:55:01;5.30;99.90
22114;DHT22;11223;49.968;9.062;2023-02-04T08:57:27;5.40;99.90
22114;DHT22;11223;49.968;9.062;2023-02-04T08:59:52;5.40;99.90
22114;DHT22;11223;49.968;9.062;2023-02-04T09:02:18;5.40;99.90
22114;DHT22;11223;49.968;9.062;2023-02-04T09:04:43;5.50;99.90
22114;DHT22;11223;49.968;9.062;2023-02-04T09:07:09;5.60;99.90
22114;DHT22;11223;49.968;9.062;2023-02-04T09:09:35;5.70;99.90
22114;DHT22;11223;49.968;9.062;2023-02-04T09:12:00;5.90;99.90
22114;DHT22;11223;49.968;9.062;2023-02-04T09:14:27;6.10;99.90
22114;DHT22;11223;49.968;9.062;2023-02-04T09:16:53;6.30;99.90
22114;DHT22;11223;49.968;9.062;2023-02-04T09:19:18;6.40;99.90
22114;DHT22;11223;49.968;9.062;2023-02-04T09:21:52;6.60;99.90
22114;DHT22;11223;49.968;9.062;2023-02-04T09:24:18;6.60;99.90
22114;DHT22;11223;49.968;9.062;2023-02-04T09:26:44;6.80;99.90
22114;DHT22;11223;49.968;9.062;2023-02-04T09:29:09;6.90;99.90
22114;DHT22;11223;49.968;9.062;2023-02-04T09:31:35;7.10;99.90
22114;DHT22;11223;49.968;9.062;2023-02-04T09:34:01;7.90;99.90
22114;DHT22;11223;49.968;9.062;2023-02-04T09:36:26;9.70;99.90
22114;DHT22;11223;49.968;9.062;2023-02-04T09:38:55;11.70;99.90
22114;DHT22;11223;49.968;9.062;2023-02-04T09:41:20;13.70;99.90
22114;DHT22;11223;49.968;9.062;2023-02-04T09:43:46;14.80;99.90
22114;DHT22;11223;49.968;9.062;2023-02-04T09:46:23;15.40;99.90
22114;DHT22;11223;49.968;9.062;2023-02-04T09:48:50;15.10;99.90
22114;DHT22;11223;49.968;9.062;2023-02-04T09:51:23;14.00;99.90
22114;DHT22;11223;49.968;9.062;2023-02-04T09:53:50;12.80;99.90
22114;DHT22;11223;49.968;9.062;2023-02-04T09:56:18;12.10;99.90
22114;DHT22;11223;49.968;9.062;2023-02-04T09:58:44;11.70;99.90
22114;DHT22;11223;49.968;9.062;2023-02-04T10:01:13;11.40;99.90
22114;DHT22;11223;49.968;9.062;2023-02-04T10:03:41;11.00;99.90
22114;DHT22;11223;49.968;9.062;2023-02-04T10:06:19;10.90;99.90
22114;DHT22;11223;49.968;9.062;2023-02-04T10:08:46;11.10;99.90
22114;DHT22;11223;49.968;9.062;2023-02-04T10:11:13;10.80;99.90
22114;DHT22;11223;49.968;9.062;2023-02-04T10:13:48;10.30;99.90
22114;DHT22;11223;49.968;9.062;2023-02-04T10:16:18;10.00;99.90
22114;DHT22;11223;49.968;9.062;2023-02-04T10:18:45;9.80;99.90
22114;DHT22;11223;49.968;9.062;2023-02-04T10:23:42;9.40;99.90
22114;DHT22;11223;49.968;9.062;2023-02-04T10:26:12;9.30;99.90
22114;DHT22;11223;49.968;9.062;2023-02-04T10:28:38;9.30;99.90
22114;DHT22;11223;49.968;9.062;2023-02-04T10:31:38;9.20;99.90
22114;DHT22;11223;49.968;9.062;2023-02-04T10:34:32;9.20;99.90
22114;DHT22;11223;49.968;9.062;2023-02-04T10:36:58;9.10;99.90
22114;DHT22;11223;49.968;9.062;2023-02-04T10:39:29;8.80;99.90
22114;DHT22;11223;49.968;9.062;2023-02-04T10:41:56;8.70;99.90
22114;DHT22;11223;49.968;9.062;2023-02-04T10:44:31;8.60;99.90
22114;DHT22;11223;49.968;9.062;2023-02-04T10:47:12;8.90;99.90
22114;DHT22;11223;49.968;9.062;2023-02-04T10:49:39;9.80;99.90
22114;DHT22;11223;49.968;9.062;2023-02-04T10:52:15;10.40;99.90
22114;DHT22;11223;49.968;9.062;2023-02-04T10:54:41;10.60;99.90
22114;DHT22;11223;49.968;9.062;2023-02-04T10:59:36;10.30;99.90
22114;DHT22;11223;49.968;9.062;2023-02-04T11:02:31;10.20;99.90
22114;DHT22;11223;49.968;9.062;2023-02-04T11:04:56;10.10;99.90
22114;DHT22;11223;49.968;9.062;2023-02-04T11:07:22;9.90;99.90
22114;DHT22;11223;49.968;9.062;2023-02-04T11:09:48;9.70;99.90
22114;DHT22;11223;49.968;9.062;2023-02-04T11:12:45;9.60;99.90
22114;DHT22;11223;49.968;9.062;2023-02-04T11:18:29;9.30;99.90
22114;DHT22;11223;49.968;9.062;2023-02-04T11:20:57;9.20;99.90
22114;DHT22;11223;49.968;9.062;2023-02-04T11:26:10;8.90;99.90
22114;DHT22;11223;49.968;9.062;2023-02-04T11:28:44;8.80;99.90
22114;DHT22;11223;49.968;9.062;2023-02-04T11:33:45;8.60;99.90
22114;DHT22;11223;49.968;9.062;2023-02-04T11:36:12;8.60;99.90
22114;DHT22;11223;49.968;9.062;2023-02-04T11:38:44;8.60;99.90
22114;DHT22;11223;49.968;9.062;2023-02-04T11:41:26;8.50;99.90
22114;DHT22;11223;49.968;9.062;2023-02-04T11:43:54;8.40;99.90
22114;DHT22;11223;49.968;9.062;2023-02-04T11:46:20;8.40;99.90
22114;DHT22;11223;49.968;9.062;2023-02-04T11:48:52;8.40;99.90
22114;DHT22;11223;49.968;9.062;2023-02-04T11:51:22;8.40;99.90
22114;DHT22;11223;49.968;9.062;2023-02-04T11:53:51;8.40;99.90
22114;DHT22;11223;49.968;9.062;2023-02-04T11:56:18;8.50;99.90
22114;DHT22;11223;49.968;9.062;2023-02-04T11:58:44;8.60;99.90
22114;DHT22;11223;49.968;9.062;2023-02-04T12:01:24;8.70;99.90
22114;DHT22;11223;49.968;9.062;2023-02-04T12:03:56;8.70;99.90
22114;DHT22;11223;49.968;9.062;2023-02-04T12:06:26;8.80;99.90
22114;DHT22;11223;49.968;9.062;2023-02-04T12:11:57;8.90;99.90
22114;DHT22;11223;49.968;9.062;2023-02-04T12:14:35;9.00;99.90
22114;DHT22;11223;49.968;9.062;2023-02-04T12:17:17;9.20;99.90
22114;DHT22;11223;49.968;9.062;2023-02-04T12:19:43;9.20;99.90
22114;DHT22;11223;49.968;9.062;2023-02-04T12:22:09;9.20;99.90
22114;DHT22;11223;49.968;9.062;2023-02-04T12:24:34;9.30;99.90
22114;DHT22;11223;49.968;9.062;2023-02-04T12:27:00;9.40;99.90
22114;DHT22;11223;49.968;9.062;2023-02-04T12:29:26;9.50;99.90
22114;DHT22;11223;49.968;9.062;2023-02-04T12:31:51;9.60;99.90
22114;DHT22;11223;49.968;9.062;2023-02-04T12:34:17;9.60;99.90
22114;DHT22;11223;49.968;9.062;2023-02-04T12:36:42;9.70;99.90
22114;DHT22;11223;49.968;9.062;2023-02-04T12:39:08;9.70;99.90
22114;DHT22;11223;49.968;9.062;2023-02-04T12:41:35;9.70;99.90
22114;DHT22;11223;49.968;9.062;2023-02-04T12:44:01;9.80;99.90
22114;DHT22;11223;49.968;9.062;2023-02-04T12:46:27;9.80;99.90
22114;DHT22;11223;49.968;9.062;2023-02-04T12:48:53;9.80;99.90
22114;DHT22;11223;49.968;9.062;2023-02-04T12:51:19;9.80;99.90
22114;DHT22;11223;49.968;9.062;2023-02-04T12:53:46;9.70;99.90
22114;DHT22;11223;49.968;9.062;2023-02-04T12:56:13;9.60;99.90
22114;DHT22;11223;49.968;9.062;2023-02-04T12:58:39;9.60;99.90
22114;DHT22;11223;49.968;9.062;2023-02-04T13:01:04;9.50;99.90
22114;DHT22;11223;49.968;9.062;2023-02-04T13:03:31;9.60;99.90
22114;DHT22;11223;49.968;9.062;2023-02-04T13:05:56;9.50;99.90
22114;DHT22;11223;49.968;9.062;2023-02-04T13:08:22;9.40;99.90
22114;DHT22;11223;49.968;9.062;2023-02-04T13:10:48;9.30;99.90
22114;DHT22;11223;49.968;9.062;2023-02-04T13:13:20;9.20;99.90
22114;DHT22;11223;49.968;9.062;2023-02-04T13:15:46;9.10;99.90
22114;DHT22;11223;49.968;9.062;2023-02-04T13:18:12;8.90;99.90
22114;DHT22;11223;49.968;9.062;2023-02-04T13:20:38;8.80;99.90
22114;DHT22;11223;49.968;9.062;2023-02-04T13:23:04;8.90;99.90
22114;DHT22;11223;49.968;9.062;2023-02-04T13:25:29;8.90;99.90
22114;DHT22;11223;49.968;9.062;2023-02-04T13:27:55;8.90;99.90
22114;DHT22;11223;49.968;9.062;2023-02-04T13:30:21;8.90;99.90
22114;DHT22;11223;49.968;9.062;2023-02-04T13:32:46;8.90;99.90
22114;DHT22;11223;49.968;9.062;2023-02-04T13:35:12;8.90;99.90
22114;DHT22;11223;49.968;9.062;2023-02-04T13:37:37;8.70;99.90
22114;DHT22;11223;49.968;9.062;2023-02-04T13:40:04;8.70;99.90
22114;DHT22;11223;49.968;9.062;2023-02-04T13:42:32;8.70;99.90
22114;DHT22;11223;49.968;9.062;2023-02-04T13:44:57;8.70;99.90
22114;DHT22;11223;49.968;9.062;2023-02-04T13:47:23;8.80;99.90
22114;DHT22;11223;49.968;9.062;2023-02-04T13:49:49;8.80;99.90
22114;DHT22;11223;49.968;9.062;2023-02-04T13:52:14;8.90;99.90
22114;DHT22;11223;49.968;9.062;2023-02-04T13:54:43;8.90;99.90
22114;DHT22;11223;49.968;9.062;2023-02-04T13:57:09;8.90;99.90
22114;DHT22;11223;49.968;9.062;2023-02-04T13:59:34;8.90;99.90
22114;DHT22;11223;49.968;9.062;2023-02-04T14:02:00;8.80;99.90
22114;DHT22;11223;49.968;9.062;2023-02-04T14:04:26;8.80;99.90
22114;DHT22;11223;49.968;9.062;2023-02-04T14:06:51;8.80;99.90
22114;DHT22;11223;49.968;9.062;2023-02-04T14:09:19;8.80;99.90
22114;DHT22;11223;49.968;9.062;2023-02-04T14:11:46;8.90;99.90
22114;DHT22;11223;49.968;9.062;2023-02-04T14:14:11;8.80;99.90
22114;DHT22;11223;49.968;9.062;2023-02-04T14:16:37;8.80;99.90
22114;DHT22;11223;49.968;9.062;2023-02-04T14:19:03;8.80;99.90
22114;DHT22;11223;49.968;9.062;2023-02-04T14:21:29;8.90;99.90
22114;DHT22;11223;49.968;9.062;2023-02-04T14:23:55;8.80;99.90
22114;DHT22;11223;49.968;9.062;2023-02-04T14:26:21;8.80;99.90
22114;DHT22;11223;49.968;9.062;2023-02-04T14:28:47;8.70;99.90
22114;DHT22;11223;49.968;9.062;2023-02-04T14:31:12;8.60;99.90
22114;DHT22;11223;49.968;9.062;2023-02-04T14:33:38;8.50;99.90
22114;DHT22;11223;49.968;9.062;2023-02-04T14:36:04;8.30;99.90
22114;DHT22;11223;49.968;9.062;2023-02-04T14:38:29;8.20;99.90
22114;DHT22;11223;49.968;9.062;2023-02-04T14:40:57;8.20;99.90
22114;DHT22;11223;49.968;9.062;2023-02-04T14:43:23;8.00;99.90
22114;DHT22;11223;49.968;9.062;2023-02-04T14:45:48;7.90;99.90
22114;DHT22;11223;49.968;9.062;2023-02-04T14:48:14;7.90;99.90
22114;DHT22;11223;49.968;9.062;2023-02-04T14:50:39;7.80;99.90
22114;DHT22;11223;49.968;9.062;2023-02-04T14:53:05;7.70;99.90
22114;DHT22;11223;49.968;9.062;2023-02-04T14:55:31;7.70;99.90
22114;DHT22;11223;49.968;9.062;2023-02-04T14:57:56;7.60;99.90
22114;DHT22;11223;49.968;9.062;2023-02-04T15:00:22;7.60;99.90
22114;DHT22;11223;49.968;9.062;2023-02-04T15:02:48;7.60;99.90
22114;DHT22;11223;49.968;9.062;2023-02-04T15:05:14;7.40;99.90
22114;DHT22;11223;49.968;9.062;2023-02-04T15:07:40;7.50;99.90
22114;DHT22;11223;49.968;9.062;2023-02-04T15:10:07;7.50;99.90
22114;DHT22;11223;49.968;9.062;2023-02-04T15:12:33;7.50;99.90
22114;DHT22;11223;49.968;9.062;2023-02-04T15:14:58;7.50;99.90
22114;DHT22;11223;49.968;9.062;2023-02-04T15:17:24;7.50;99.90
22114;DHT22;11223;49.968;9.062;2023-02-04T15:19:50;7.60;99.90
22114;DHT22;11223;49.968;9.062;2023-02-04T15:22:15;7.70;99.90
22114;DHT22;11223;49.968;9.062;2023-02-04T15:24:41;7.70;99.90
22114;DHT22;11223;49.968;9.062;2023-02-04T15:27:07;7.80;99.90
22114;DHT22;11223;49.968;9.062;2023-02-04T15:29:33;7.80;99.90
22114;DHT22;11223;49.968;9.062;2023-02-04T15:32:02;7.80;99.90
22114;DHT22;11223;49.968;9.062;2023-02-04T15:34:27;7.70;99.90
22114;DHT22;11223;49.968;9.062;2023-02-04T15:36:53;7.70;99.90
22114;DHT22;11223;49.968;9.062;2023-02-04T15:39:18;7.60;99.90
22114;DHT22;11223;49.968;9.062;2023-02-04T15:41:44;7.60;99.90
22114;DHT22;11223;49.968;9.062;2023-02-04T15:44:10;7.60;99.90
22114;DHT22;11223;49.968;9.062;2023-02-04T15:46:37;7.50;99.90
22114;DHT22;11223;49.968;9.062;2023-02-04T15:49:02;7.50;99.90
22114;DHT22;11223;49.968;9.062;2023-02-04T15:51:28;7.40;99.90
22114;DHT22;11223;49.968;9.062;2023-02-04T15:53:54;7.30;99.90
22114;DHT22;11223;49.968;9.062;2023-02-04T15:56:20;7.30;99.90
22114;DHT22;11223;49.968;9.062;2023-02-04T15:58:45;7.10;99.90
22114;DHT22;11223;49.968;9.062;2023-02-04T16:01:11;7.00;99.90